Time;durP1;ratioP1;P1;durP2;ratioP2;P2;SDS_P1;SDS_P2;PMS_P1;PMS_P2;Temp;Humidity;BMP_temperature;BMP_pressure;BME280_temperature;BME280_humidity;BME280_pressure;Samples;Min_cycle;Max_cycle;Signal;HPM_P1;HPM_P2
2023/08/26 00:02:10;;;;;;;7.95;4.88;;;16.10;99.90;;;;;;5074234;28;20051;-71
2023/08/26 00:04:36;;;;;;;7.15;5.00;;;16.00;99.90;;;;;;5073635;28;20036;-71
2023/08/26 00:07:02;;;;;;;9.95;5.95;;;16.00;99.90;;;;;;5074683;28;20123;-71
2023/08/26 00:09:28;;;;;;;7.32;4.78;;;16.00;99.90;;;;;;5074028;28;20040;-69
2023/08/26 00:11:54;;;;;;;8.05;4.97;;;16.00;99.90;;;;;;5073617;28;20097;-68
2023/08/26 00:14:19;;;;;;;8.80;5.07;;;16.00;99.90;;;;;;5074539;28;20038;-69
2023/08/26 00:16:45;;;;;;;10.88;5.03;;;16.00;99.90;;;;;;5092051;28;20036;-69
2023/08/26 00:19:11;;;;;;;10.25;4.93;;;15.90;99.90;;;;;;5056920;28;20401;-69
2023/08/26 00:21:37;;;;;;;7.85;4.65;;;15.90;99.90;;;;;;5092180;28;20485;-69
2023/08/26 00:24:04;;;;;;;9.10;5.00;;;15.90;99.90;;;;;;5074594;28;20118;-69
2023/08/26 00:26:30;;;;;;;5.90;3.55;;;15.90;99.90;;;;;;5072574;28;20044;-70
2023/08/26 00:28:56;;;;;;;7.68;3.85;;;15.80;99.90;;;;;;5092495;28;20028;-69
2023/08/26 00:31:24;;;;;;;8.38;3.60;;;15.90;99.90;;;;;;5074007;28;20072;-69
2023/08/26 00:33:50;;;;;;;6.35;3.63;;;15.80;99.90;;;;;;5056577;28;20028;-68
2023/08/26 00:36:16;;;;;;;10.23;4.05;;;15.80;99.90;;;;;;5092331;28;20036;-68
2023/08/26 00:38:42;;;;;;;10.63;4.35;;;15.80;99.90;;;;;;5073763;28;20047;-69
2023/08/26 00:41:07;;;;;;;7.07;3.85;;;15.80;99.90;;;;;;5056736;28;20122;-69
2023/08/26 00:43:37;;;;;;;7.82;4.07;;;15.70;99.90;;;;;;5057179;28;20100;-70
2023/08/26 00:46:03;;;;;;;9.02;3.97;;;15.80;99.90;;;;;;5091685;28;20373;-69
2023/08/26 00:48:29;;;;;;;9.68;4.07;;;15.70;99.90;;;;;;5091832;28;20123;-69
2023/08/26 00:50:55;;;;;;;8.32;2.85;;;15.70;99.90;;;;;;5074332;28;20107;-69
2023/08/26 00:53:22;;;;;;;6.85;3.58;;;15.70;99.90;;;;;;5056080;28;20464;-68
2023/08/26 00:55:50;;;;;;;6.10;3.65;;;15.70;99.90;;;;;;5073777;28;20055;-68
2023/08/26 00:58:17;;;;;;;7.68;4.15;;;15.70;99.90;;;;;;5092185;28;20078;-68
2023/08/26 01:00:43;;;;;;;8.07;4.07;;;15.70;99.90;;;;;;5072667;28;20043;-69
2023/08/26 01:03:09;;;;;;;8.32;3.40;;;15.60;99.90;;;;;;5073881;28;20051;-69
2023/08/26 01:05:35;;;;;;;9.73;3.88;;;15.60;99.90;;;;;;5091670;28;20485;-69
2023/08/26 01:08:05;;;;;;;6.55;3.38;;;15.50;99.90;;;;;;5073211;28;20123;-69
2023/08/26 01:10:40;;;;;;;7.72;3.38;;;15.50;99.90;;;;;;5073431;28;20035;-69
2023/08/26 01:13:12;;;;;;;7.30;3.28;;;15.50;99.90;;;;;;5092117;28;20082;-69
2023/08/26 01:15:43;;;;;;;6.03;3.65;;;15.50;99.90;;;;;;5090463;28;20508;-69
2023/08/26 01:18:10;;;;;;;5.20;2.90;;;15.40;99.90;;;;;;5073525;28;20066;-68
2023/08/26 01:20:37;;;;;;;6.78;2.88;;;15.40;99.90;;;;;;5091503;28;20079;-69
2023/08/26 01:23:05;;;;;;;6.28;3.22;;;15.40;99.90;;;;;;5073199;28;20045;-68
2023/08/26 01:25:31;;;;;;;6.45;2.72;;;15.40;99.90;;;;;;5091911;28;20120;-69
2023/08/26 01:27:58;;;;;;;6.60;2.60;;;15.30;99.90;;;;;;5073164;28;20508;-69
2023/08/26 01:30:27;;;;;;;6.35;2.67;;;15.30;99.90;;;;;;5056873;28;20477;-69
2023/08/26 01:33:04;;;;;;;7.57;2.38;;;15.30;99.90;;;;;;5073892;28;20489;-69
2023/08/26 01:35:37;;;;;;;4.90;2.65;;;15.20;99.90;;;;;;5090845;28;20388;-69
2023/08/26 01:38:03;;;;;;;8.02;2.95;;;15.20;99.90;;;;;;5074167;28;20040;-69
2023/08/26 01:40:29;;;;;;;4.40;2.40;;;15.10;99.90;;;;;;5076502;28;20492;-69
2023/08/26 01:42:56;;;;;;;6.63;3.22;;;15.10;99.90;;;;;;5094315;28;20040;-69
2023/08/26 01:45:21;;;;;;;8.23;3.03;;;15.00;99.90;;;;;;5077093;28;20393;-69
2023/08/26 01:47:47;;;;;;;6.15;3.42;;;15.00;99.90;;;;;;5094980;28;20044;-69
2023/08/26 01:50:13;;;;;;;7.15;3.30;;;14.90;99.90;;;;;;5076052;28;20051;-69
2023/08/26 01:52:40;;;;;;;6.47;3.47;;;14.90;99.90;;;;;;5076983;28;20511;-69
2023/08/26 01:55:06;;;;;;;7.07;3.53;;;14.80;99.90;;;;;;5095116;28;20044;-69
2023/08/26 01:57:32;;;;;;;5.43;3.20;;;14.80;99.90;;;;;;5094219;28;20054;-70
2023/08/26 01:59:58;;;;;;;7.05;2.78;;;14.80;99.90;;;;;;5077168;28;20544;-69
2023/08/26 02:02:23;;;;;;;12.85;3.15;;;14.80;99.90;;;;;;5094046;28;20040;-69
2023/08/26 02:04:49;;;;;;;5.75;3.13;;;14.70;99.90;;;;;;5076186;28;20554;-69
2023/08/26 02:07:14;;;;;;;6.38;2.83;;;14.60;99.90;;;;;;5076541;28;20066;-69
2023/08/26 02:09:40;;;;;;;5.97;3.08;;;14.60;99.90;;;;;;5076778;28;20039;-69
2023/08/26 02:12:06;;;;;;;5.60;3.08;;;14.60;99.90;;;;;;5075751;28;20094;-68
2023/08/26 02:14:32;;;;;;;6.78;3.58;;;14.50;99.90;;;;;;5094797;28;20071;-68
2023/08/26 02:16:58;;;;;;;11.38;3.53;;;14.50;99.90;;;;;;5076774;28;20074;-68
2023/08/26 02:19:24;;;;;;;5.40;3.00;;;14.50;99.90;;;;;;5075856;28;20434;-68
2023/08/26 02:21:52;;;;;;;7.57;3.10;;;14.50;99.90;;;;;;5094136;28;20116;-68
2023/08/26 02:24:17;;;;;;;5.18;2.72;;;14.50;99.90;;;;;;5075446;28;20062;-68
2023/08/26 02:26:43;;;;;;;6.35;3.47;;;14.40;99.90;;;;;;5094408;28;20040;-68
2023/08/26 02:29:08;;;;;;;6.47;3.35;;;14.30;99.90;;;;;;5075920;28;20043;-71
2023/08/26 02:31:34;;;;;;;7.20;3.08;;;14.30;99.90;;;;;;5093472;28;20032;-72
2023/08/26 02:34:00;;;;;;;6.68;3.00;;;14.30;99.90;;;;;;5060143;28;20046;-71
2023/08/26 02:36:25;;;;;;;5.40;2.92;;;14.20;99.90;;;;;;5094573;28;20038;-71
2023/08/26 02:38:51;;;;;;;7.50;3.80;;;14.20;99.90;;;;;;5093364;28;20516;-71
2023/08/26 02:41:17;;;;;;;6.72;3.40;;;14.20;99.90;;;;;;5093847;28;20044;-71
2023/08/26 02:43:42;;;;;;;6.90;3.70;;;14.10;99.90;;;;;;5094096;28;20032;-71
2023/08/26 02:46:08;;;;;;;7.53;3.72;;;14.10;99.90;;;;;;5058909;28;20050;-72
2023/08/26 02:48:34;;;;;;;8.07;4.57;;;14.10;99.90;;;;;;5075919;28;20532;-72
2023/08/26 02:51:01;;;;;;;6.80;3.85;;;14.10;99.90;;;;;;5075847;28;20032;-71
2023/08/26 02:53:28;;;;;;;5.30;3.20;;;14.00;99.90;;;;;;5058157;28;20484;-72
2023/08/26 02:55:55;;;;;;;6.55;4.20;;;14.00;99.90;;;;;;5076103;28;20503;-72
2023/08/26 02:58:21;;;;;;;6.78;4.43;;;14.00;99.90;;;;;;5076004;28;20433;-72
2023/08/26 03:00:47;;;;;;;7.70;4.13;;;13.90;99.90;;;;;;5074471;28;20039;-72
2023/08/26 03:03:14;;;;;;;8.00;4.20;;;13.90;99.90;;;;;;5075786;28;20093;-71
2023/08/26 03:05:40;;;;;;;10.68;4.43;;;13.90;99.90;;;;;;5093320;28;20541;-72
2023/08/26 03:08:06;;;;;;;7.57;4.60;;;13.80;99.90;;;;;;5074714;28;20068;-72
2023/08/26 03:10:32;;;;;;;8.05;4.45;;;13.80;99.90;;;;;;5093392;28;20125;-71
2023/08/26 03:12:58;;;;;;;6.55;4.10;;;13.70;99.90;;;;;;5072423;28;20036;-72
2023/08/26 03:15:27;;;;;;;6.82;3.90;;;13.80;99.90;;;;;;5071274;28;20032;-72
2023/08/26 03:17:53;;;;;;;5.90;3.85;;;13.80;99.90;;;;;;5075256;28;20111;-71
2023/08/26 03:20:19;;;;;;;5.82;3.38;;;13.70;99.90;;;;;;5075550;28;20136;-71
2023/08/26 03:22:45;;;;;;;7.25;4.70;;;13.70;99.90;;;;;;5074154;28;20489;-71
2023/08/26 03:25:11;;;;;;;6.18;3.67;;;13.70;99.90;;;;;;5075142;28;20050;-71
2023/08/26 03:27:37;;;;;;;5.72;3.55;;;13.70;99.90;;;;;;5074359;28;20044;-72
2023/08/26 03:30:03;;;;;;;6.95;4.03;;;13.70;99.90;;;;;;5075236;28;20085;-71
2023/08/26 03:32:29;;;;;;;11.85;3.10;;;13.60;99.90;;;;;;5074446;28;20040;-72
2023/08/26 03:34:54;;;;;;;7.13;4.05;;;13.70;99.90;;;;;;5092834;28;20036;-72
2023/08/26 03:37:20;;;;;;;7.47;4.45;;;13.60;99.90;;;;;;5093273;28;20043;-71
2023/08/26 03:39:46;;;;;;;8.88;4.15;;;13.60;99.90;;;;;;5074368;28;20047;-71
2023/08/26 03:42:12;;;;;;;8.52;4.28;;;13.60;99.90;;;;;;5091891;28;20044;-72
2023/08/26 03:44:37;;;;;;;7.57;4.47;;;13.60;99.90;;;;;;5074842;28;20040;-71
2023/08/26 03:47:03;;;;;;;9.75;4.65;;;13.60;99.90;;;;;;5075079;28;20052;-71
2023/08/26 03:49:30;;;;;;;7.93;4.85;;;13.60;99.90;;;;;;5073399;28;20521;-71
2023/08/26 03:51:55;;;;;;;6.70;4.50;;;13.60;99.90;;;;;;5092693;28;20036;-72
2023/08/26 03:54:21;;;;;;;7.47;4.72;;;13.60;99.90;;;;;;5074538;28;20056;-71
2023/08/26 03:56:47;;;;;;;7.97;4.60;;;13.60;99.90;;;;;;5073849;28;20471;-71
2023/08/26 03:59:13;;;;;;;6.03;3.50;;;13.70;99.90;;;;;;5092895;28;20118;-72
2023/08/26 04:01:39;;;;;;;7.32;3.83;;;13.60;99.90;;;;;;5074014;28;20050;-72
2023/08/26 04:04:04;;;;;;;7.45;3.53;;;13.70;99.90;;;;;;5092286;28;20040;-72
2023/08/26 04:06:31;;;;;;;6.50;4.03;;;13.60;99.90;;;;;;5073984;28;20036;-72
2023/08/26 04:08:57;;;;;;;6.32;4.07;;;13.70;99.90;;;;;;5057926;28;20044;-72
2023/08/26 04:11:22;;;;;;;7.75;4.00;;;13.70;99.90;;;;;;5073236;28;20036;-71
2023/08/26 04:13:48;;;;;;;6.80;4.40;;;13.80;99.90;;;;;;5074750;28;20078;-71
2023/08/26 04:16:15;;;;;;;6.43;4.25;;;13.80;99.90;;;;;;5092703;28;20036;-71
2023/08/26 04:18:42;;;;;;;7.85;3.92;;;13.70;99.90;;;;;;5056499;28;20032;-71
2023/08/26 04:21:09;;;;;;;6.90;4.65;;;13.80;99.90;;;;;;5091295;28;20035;-72
2023/08/26 04:23:35;;;;;;;9.02;5.28;;;13.80;99.90;;;;;;5073038;28;20040;-71
2023/08/26 04:26:02;;;;;;;7.60;4.53;;;13.80;99.90;;;;;;5073732;28;20042;-71
2023/08/26 04:28:29;;;;;;;7.53;4.82;;;13.80;99.90;;;;;;5074097;28;20036;-71
2023/08/26 04:30:55;;;;;;;8.70;5.57;;;13.90;99.90;;;;;;5091460;28;20028;-71
2023/08/26 04:33:21;;;;;;;7.43;5.15;;;13.80;99.90;;;;;;5074281;28;20424;-71
2023/08/26 04:35:46;;;;;;;9.20;5.68;;;13.80;99.90;;;;;;5074172;28;20039;-72
2023/08/26 04:38:13;;;;;;;6.60;4.32;;;14.00;99.90;;;;;;5091370;28;20854;-72
2023/08/26 04:40:41;;;;;;;7.88;5.43;;;14.00;99.90;;;;;;5074066;28;20043;-72
2023/08/26 04:43:10;;;;;;;7.47;4.80;;;13.90;99.90;;;;;;5091794;28;20071;-72
2023/08/26 04:45:40;;;;;;;10.23;5.70;;;14.10;99.90;;;;;;5073201;28;20083;-71
2023/08/26 04:48:07;;;;;;;10.10;6.05;;;13.80;99.90;;;;;;5074155;28;20374;-71
2023/08/26 04:50:33;;;;;;;11.52;5.82;;;13.90;99.90;;;;;;5057021;28;20484;-71
2023/08/26 04:53:00;;;;;;;8.63;5.15;;;13.90;99.90;;;;;;5068105;28;20060;-71
2023/08/26 04:55:26;;;;;;;9.63;6.32;;;14.00;99.90;;;;;;5073693;28;20044;-71
2023/08/26 04:57:52;;;;;;;8.75;5.90;;;14.10;99.90;;;;;;5073847;28;20040;-71
2023/08/26 05:00:18;;;;;;;10.52;5.93;;;14.00;99.90;;;;;;5073113;28;20056;-71
2023/08/26 05:02:44;;;;;;;8.80;5.55;;;14.00;99.90;;;;;;5073760;28;20040;-71
2023/08/26 05:05:10;;;;;;;8.93;5.90;;;13.90;99.90;;;;;;5091949;28;20040;-71
2023/08/26 05:07:36;;;;;;;10.38;5.88;;;13.80;99.90;;;;;;5090579;28;20047;-71
2023/08/26 05:10:05;;;;;;;8.77;5.93;;;13.80;99.90;;;;;;5057238;28;20032;-69
2023/08/26 05:12:32;;;;;;;8.88;6.13;;;13.90;99.90;;;;;;5091913;28;20032;-68
2023/08/26 05:14:57;;;;;;;10.10;5.75;;;13.80;99.90;;;;;;5095068;28;20061;-68
2023/08/26 05:17:23;;;;;;;7.50;5.57;;;13.80;99.90;;;;;;5077771;28;20052;-69
2023/08/26 05:19:50;;;;;;;8.50;4.82;;;13.80;99.90;;;;;;5077202;28;20144;-69
2023/08/26 05:22:15;;;;;;;8.52;5.18;;;13.70;99.90;;;;;;5093968;28;20485;-69
2023/08/26 05:24:41;;;;;;;7.45;5.70;;;13.90;99.90;;;;;;5077298;28;20040;-69
2023/08/26 05:27:07;;;;;;;8.32;4.93;;;14.20;99.90;;;;;;5094263;28;20036;-69
2023/08/26 05:29:33;;;;;;;10.95;5.03;;;14.30;99.90;;;;;;5060713;28;20044;-68
2023/08/26 05:31:59;;;;;;;7.80;5.70;;;14.10;99.90;;;;;;5077472;28;20028;-69
2023/08/26 05:34:25;;;;;;;9.50;5.25;;;13.90;99.90;;;;;;5094607;28;20047;-69
2023/08/26 05:36:51;;;;;;;8.10;4.78;;;14.10;99.90;;;;;;5077085;28;20122;-69
2023/08/26 05:39:16;;;;;;;9.18;4.50;;;14.10;99.90;;;;;;5060290;28;20036;-69
2023/08/26 05:41:42;;;;;;;7.97;5.65;;;14.10;99.90;;;;;;5094458;28;20074;-69
2023/08/26 05:44:08;;;;;;;7.10;4.85;;;14.20;99.90;;;;;;5095091;28;20594;-69
2023/08/26 05:46:33;;;;;;;9.55;4.70;;;14.40;99.90;;;;;;5077393;28;20072;-70
2023/08/26 05:48:59;;;;;;;8.13;4.75;;;14.50;99.90;;;;;;5093944;28;20048;-69
2023/08/26 05:51:25;;;;;;;10.85;5.70;;;14.40;99.90;;;;;;5060250;28;20959;-69
2023/08/26 05:53:50;;;;;;;8.43;5.13;;;14.50;99.90;;;;;;5094932;28;20441;-69
2023/08/26 05:56:16;;;;;;;9.43;4.75;;;14.70;99.90;;;;;;5076086;28;20044;-69
2023/08/26 05:58:42;;;;;;;8.63;4.85;;;14.80;99.90;;;;;;5095265;28;20044;-69
2023/08/26 06:01:07;;;;;;;6.38;4.43;;;14.70;99.90;;;;;;5095171;28;20038;-69
2023/08/26 06:03:33;;;;;;;8.55;4.40;;;14.70;99.90;;;;;;5059527;28;20040;-69
2023/08/26 06:05:59;;;;;;;7.55;4.65;;;14.80;99.90;;;;;;5077115;28;20044;-69
2023/08/26 06:08:24;;;;;;;6.75;4.40;;;15.00;99.90;;;;;;5093911;28;20424;-69
2023/08/26 06:10:57;;;;;;;7.32;4.78;;;14.60;99.90;;;;;;5075969;28;20451;-69
2023/08/26 06:13:22;;;;;;;8.15;4.57;;;15.10;99.90;;;;;;5060413;28;20046;-69
2023/08/26 06:15:58;;;;;;;8.55;4.47;;;15.00;99.90;;;;;;5076423;28;20119;-69
2023/08/26 06:18:25;;;;;;;8.85;4.57;;;15.30;99.90;;;;;;5075518;28;20055;-69
2023/08/26 06:20:51;;;;;;;6.00;4.05;;;15.30;99.90;;;;;;5094385;28;20392;-69
2023/08/26 06:23:20;;;;;;;7.88;4.85;;;15.10;99.90;;;;;;5076699;28;20160;-68
2023/08/26 06:25:56;;;;;;;8.25;4.30;;;15.20;99.90;;;;;;5075546;28;20067;-68
2023/08/26 06:28:23;;;;;;;5.88;3.60;;;15.30;99.90;;;;;;5076142;28;20047;-68
2023/08/26 06:30:49;;;;;;;7.75;3.78;;;15.40;99.90;;;;;;5093644;28;20422;-68
2023/08/26 06:33:15;;;;;;;7.20;4.15;;;15.50;99.90;;;;;;5075177;28;20036;-68
2023/08/26 06:35:46;;;;;;;6.32;3.38;;;15.60;99.90;;;;;;5076185;28;20157;-69
2023/08/26 06:38:12;;;;;;;7.10;3.53;;;15.50;99.90;;;;;;5058948;28;20040;-69
2023/08/26 06:40:37;;;;;;;6.10;3.80;;;15.70;99.90;;;;;;5076483;28;20043;-69
2023/08/26 06:43:03;;;;;;;6.32;2.88;;;15.80;99.90;;;;;;5059585;28;20127;-69
2023/08/26 06:45:30;;;;;;;7.80;2.75;;;15.90;99.90;;;;;;5074640;28;20048;-70
2023/08/26 06:47:56;;;;;;;5.00;2.42;;;15.90;99.90;;;;;;5075390;28;20051;-71
2023/08/26 06:50:23;;;;;;;6.50;2.45;;;15.90;99.90;;;;;;5061593;28;20119;-71
2023/08/26 06:52:49;;;;;;;5.13;2.25;;;15.90;99.90;;;;;;5074268;28;20040;-71
2023/08/26 06:55:18;;;;;;;5.50;2.88;;;16.00;99.90;;;;;;5075971;28;20052;-71
2023/08/26 06:57:45;;;;;;;5.95;3.10;;;15.90;99.90;;;;;;5058446;28;20039;-71
2023/08/26 07:00:12;;;;;;;5.40;2.90;;;15.90;99.90;;;;;;5071249;28;20126;-71
2023/08/26 07:02:38;;;;;;;5.60;3.08;;;16.00;99.90;;;;;;5072217;28;20055;-71
2023/08/26 07:05:04;;;;;;;5.43;2.90;;;15.80;99.90;;;;;;5091373;28;20048;-71
2023/08/26 07:07:30;;;;;;;5.50;3.30;;;15.90;99.90;;;;;;5071309;28;20066;-71
2023/08/26 07:09:56;;;;;;;8.52;4.97;;;16.10;99.90;;;;;;5072672;28;20040;-71
2023/08/26 07:12:21;;;;;;;9.23;4.82;;;15.90;99.90;;;;;;5072066;28;20050;-69
2023/08/26 07:14:47;;;;;;;9.70;4.72;;;16.00;99.90;;;;;;5072008;28;20163;-67
2023/08/26 07:17:15;;;;;;;9.63;5.57;;;16.20;99.90;;;;;;5072864;28;20052;-68
2023/08/26 07:19:41;;;;;;;7.82;5.40;;;16.10;99.90;;;;;;5071770;28;20051;-80
2023/08/26 07:22:07;;;;;;;8.95;6.40;;;16.30;99.90;;;;;;5072636;28;20039;-68
2023/08/26 07:24:32;;;;;;;12.35;6.80;;;16.40;99.90;;;;;;5091124;28;20065;-67
2023/08/26 07:26:58;;;;;;;11.48;7.22;;;16.50;99.90;;;;;;5072225;28;20184;-67
2023/08/26 07:29:24;;;;;;;12.32;7.28;;;16.60;99.90;;;;;;5072512;28;20044;-67
2023/08/26 07:31:50;;;;;;;9.80;7.30;;;16.70;99.90;;;;;;5055683;28;20044;-67
2023/08/26 07:34:15;;;;;;;10.95;7.78;;;16.90;99.90;;;;;;5072062;28;20040;-67
2023/08/26 07:36:41;;;;;;;12.38;8.70;;;17.00;99.90;;;;;;5088383;28;21064;-67
2023/08/26 07:39:07;;;;;;;12.75;9.48;;;17.10;99.90;;;;;;5054234;28;20560;-66
2023/08/26 07:41:32;;;;;;;11.40;8.65;;;17.20;99.90;;;;;;5061640;28;20135;-66
2023/08/26 07:43:58;;;;;;;15.60;9.77;;;17.30;99.90;;;;;;5044026;28;20072;-66
2023/08/26 07:46:24;;;;;;;13.25;9.57;;;17.40;99.90;;;;;;5057191;28;20047;-66
2023/08/26 07:48:50;;;;;;;17.17;9.98;;;17.50;99.90;;;;;;5061198;28;20134;-66
2023/08/26 07:51:16;;;;;;;11.82;8.65;;;17.70;99.90;;;;;;5042549;28;20041;-66
2023/08/26 07:53:42;;;;;;;14.60;10.15;;;17.80;99.90;;;;;;5058797;28;20049;-66
2023/08/26 07:56:08;;;;;;;12.48;10.45;;;17.80;99.90;;;;;;5061805;28;20042;-67
2023/08/26 07:58:34;;;;;;;12.57;9.57;;;17.90;99.90;;;;;;5079459;28;20044;-66
2023/08/26 08:00:59;;;;;;;11.95;9.77;;;17.90;99.90;;;;;;5042185;28;20040;-66
2023/08/26 08:03:25;;;;;;;14.50;9.93;;;18.00;99.90;;;;;;5041126;28;20041;-64
2023/08/26 08:05:51;;;;;;;12.50;10.25;;;18.10;99.90;;;;;;5058672;28;20047;-64
2023/08/26 08:08:17;;;;;;;14.43;9.20;;;18.30;99.90;;;;;;5069253;28;20050;-64
2023/08/26 08:10:43;;;;;;;14.40;9.65;;;18.30;99.90;;;;;;5052897;28;20040;-64
2023/08/26 08:13:09;;;;;;;12.60;8.90;;;18.30;99.90;;;;;;5049784;28;20042;-64
2023/08/26 08:15:35;;;;;;;14.65;9.95;;;18.30;99.90;;;;;;5051789;28;20098;-64
2023/08/26 08:18:02;;;;;;;12.80;10.57;;;18.40;99.90;;;;;;5032150;28;20044;-63
2023/08/26 08:20:30;;;;;;;11.10;9.00;;;18.30;99.90;;;;;;5069400;28;20055;-63
2023/08/26 08:22:56;;;;;;;12.77;9.25;;;18.20;99.90;;;;;;5051424;28;20087;-63
2023/08/26 08:25:22;;;;;;;13.80;7.93;;;18.10;99.90;;;;;;5063169;28;20044;-63
2023/08/26 08:27:48;;;;;;;10.20;7.45;;;18.00;99.90;;;;;;5080660;28;20059;-62
2023/08/26 08:30:14;;;;;;;9.95;6.97;;;17.90;99.90;;;;;;5070114;28;20058;-63
2023/08/26 08:32:40;;;;;;;9.13;6.65;;;17.80;99.90;;;;;;5057863;28;20425;-63
2023/08/26 08:35:06;;;;;;;10.68;7.10;;;17.90;99.90;;;;;;5052456;28;20111;-65
2023/08/26 08:37:32;;;;;;;8.73;6.18;;;18.10;99.90;;;;;;5051993;28;20051;-65
2023/08/26 08:39:59;;;;;;;8.75;5.15;;;18.10;99.90;;;;;;5070816;28;20044;-65
2023/08/26 08:42:25;;;;;;;7.25;4.53;;;18.10;99.90;;;;;;5070660;28;20365;-66
2023/08/26 08:44:51;;;;;;;7.57;3.97;;;18.00;99.90;;;;;;5068474;28;20385;-65
2023/08/26 08:47:17;;;;;;;8.25;4.13;;;17.90;99.90;;;;;;5069859;28;20077;-65
2023/08/26 08:49:44;;;;;;;6.15;3.55;;;17.90;99.90;;;;;;5054345;28;20090;-65
2023/08/26 08:52:11;;;;;;;7.93;3.60;;;18.00;99.90;;;;;;5087785;28;20043;-66
2023/08/26 08:54:37;;;;;;;7.60;2.90;;;18.00;99.90;;;;;;5082558;28;20378;-66
2023/08/26 08:57:06;;;;;;;4.18;2.17;;;18.00;99.90;;;;;;5069216;28;20201;-65
2023/08/26 08:59:35;;;;;;;4.90;2.00;;;18.00;99.90;;;;;;5070045;28;20044;-66
2023/08/26 09:02:03;;;;;;;4.75;1.77;;;18.00;99.90;;;;;;5071274;28;20048;-66
2023/08/26 09:04:29;;;;;;;5.07;1.98;;;18.00;99.90;;;;;;5073149;28;20400;-66
2023/08/26 09:06:55;;;;;;;5.45;1.73;;;18.20;99.90;;;;;;5090991;28;20032;-67
2023/08/26 09:09:21;;;;;;;5.05;1.80;;;18.30;99.90;;;;;;5073772;28;20369;-66
2023/08/26 09:11:50;;;;;;;4.30;1.90;;;18.40;99.90;;;;;;5072305;28;20032;-67
2023/08/26 09:14:16;;;;;;;3.80;1.65;;;18.50;99.90;;;;;;5090865;28;20042;-66
2023/08/26 09:16:43;;;;;;;5.30;1.60;;;18.60;99.90;;;;;;5091779;28;20067;-66
2023/08/26 09:19:13;;;;;;;3.33;1.40;;;18.70;99.90;;;;;;5073551;28;20127;-67
2023/08/26 09:21:45;;;;;;;5.13;2.00;;;18.80;99.90;;;;;;5054112;28;20141;-66
2023/08/26 09:24:15;;;;;;;3.88;1.52;;;18.80;99.90;;;;;;5073655;28;20050;-64
2023/08/26 09:26:43;;;;;;;4.10;1.80;;;18.90;99.90;;;;;;5056374;28;20126;-64
2023/08/26 09:29:19;;;;;;;8.52;1.73;;;18.90;99.90;;;;;;5073667;28;20044;-64
2023/08/26 09:31:46;;;;;;;5.18;2.20;;;18.90;99.90;;;;;;5073797;28;20036;-64
2023/08/26 09:34:21;;;;;;;5.68;1.65;;;19.00;99.90;;;;;;5089781;28;20048;-65
2023/08/26 09:36:48;;;;;;;5.30;1.95;;;19.00;99.90;;;;;;5091991;28;20036;-64
2023/08/26 09:39:14;;;;;;;4.78;1.90;;;18.90;99.90;;;;;;5060910;28;20120;-65
2023/08/26 09:41:44;;;;;;;5.95;1.73;;;18.80;99.90;;;;;;5052992;28;20132;-65
2023/08/26 09:44:11;;;;;;;6.35;1.90;;;18.70;99.90;;;;;;5053878;28;20044;-62
2023/08/26 09:46:39;;;;;;;4.63;1.80;;;18.70;99.90;;;;;;5053314;28;20083;-61
2023/08/26 09:49:05;;;;;;;5.72;1.88;;;18.60;99.90;;;;;;5052862;28;20394;-61
2023/08/26 09:51:32;;;;;;;8.38;1.80;;;18.60;99.90;;;;;;5071458;28;20047;-64
2023/08/26 09:53:59;;;;;;;4.65;1.73;;;18.50;99.90;;;;;;5073356;28;20137;-64
2023/08/26 09:56:28;;;;;;;4.82;1.67;;;18.40;99.90;;;;;;5072356;28;20036;-65
2023/08/26 09:58:55;;;;;;;6.68;1.67;;;18.40;99.90;;;;;;5073396;28;20031;-65
2023/08/26 10:01:23;;;;;;;4.63;1.92;;;18.30;99.90;;;;;;5074722;28;20051;-65
2023/08/26 10:04:18;;;;;;;3.28;1.50;;;18.20;99.90;;;;;;5083709;28;20044;-65
2023/08/26 10:06:53;;;;;;;;;;;18.20;99.90;;;;;;5068821;28;20063;-65
2023/08/26 10:09:31;;;;;;;6.03;2.40;;;18.10;99.90;;;;;;5068941;28;19924;-65
2023/08/26 10:12:00;;;;;;;4.65;2.17;;;18.10;99.90;;;;;;5073725;28;20032;-65
2023/08/26 10:14:30;;;;;;;7.13;4.30;;;18.00;99.90;;;;;;5055561;28;20047;-65
2023/08/26 10:16:58;;;;;;;13.52;5.07;;;18.00;99.90;;;;;;5088661;28;20127;-65
2023/08/26 10:19:24;;;;;;;7.80;4.68;;;18.10;99.90;;;;;;5055315;28;20147;-65
2023/08/26 10:21:52;;;;;;;9.07;5.07;;;18.10;99.90;;;;;;5067776;28;20556;-65
2023/08/26 10:24:20;;;;;;;7.55;5.60;;;18.10;99.90;;;;;;5057063;28;20036;-65
2023/08/26 10:26:47;;;;;;;11.73;5.80;;;18.10;99.90;;;;;;5068285;28;20462;-64
2023/08/26 10:29:14;;;;;;;8.20;5.25;;;18.10;99.90;;;;;;5073422;28;20035;-66
2023/08/26 10:31:42;;;;;;;10.18;4.50;;;18.20;99.90;;;;;;5072506;28;20040;-66
2023/08/26 10:34:07;;;;;;;11.27;4.82;;;18.20;99.90;;;;;;5073811;28;20157;-65
2023/08/26 10:36:38;;;;;;;7.10;3.67;;;18.20;99.90;;;;;;5070579;28;20082;-65
2023/08/26 10:39:24;;;;;;;7.30;4.53;;;18.20;99.90;;;;;;5071118;28;20131;-65
2023/08/26 10:42:13;;;;;;;8.20;3.40;;;18.20;99.90;;;;;;5076310;28;20048;-66
2023/08/26 10:44:42;;;;;;;6.15;2.70;;;18.20;99.90;;;;;;5074863;28;20090;-64
2023/08/26 10:47:08;;;;;;;4.55;2.50;;;18.10;99.90;;;;;;5075989;28;20511;-63
2023/08/26 10:49:36;;;;;;;7.97;2.97;;;18.20;99.90;;;;;;5093446;28;20036;-63
2023/08/26 10:52:16;;;;;;;6.60;2.42;;;18.30;99.90;;;;;;5075727;28;20036;-63
2023/08/26 10:54:43;;;;;;;4.40;2.35;;;18.40;99.90;;;;;;5074705;28;20051;-62
2023/08/26 10:57:09;;;;;;;5.45;2.50;;;18.30;99.90;;;;;;5076020;28;20091;-63
2023/08/26 10:59:36;;;;;;;5.10;2.55;;;18.40;99.90;;;;;;5074636;28;20493;-64
2023/08/26 11:02:07;;;;;;;4.95;2.40;;;18.60;99.90;;;;;;5059759;28;20036;-64
2023/08/26 11:04:42;;;;;;;4.82;2.28;;;18.80;99.90;;;;;;5075662;28;20042;-64
2023/08/26 11:07:15;;;;;;;5.22;2.08;;;18.90;99.90;;;;;;5075515;28;20040;-64
2023/08/26 11:09:40;;;;;;;4.95;1.98;;;18.90;99.90;;;;;;5093692;28;20036;-64
2023/08/26 11:12:24;;;;;;;3.60;1.70;;;19.00;99.90;;;;;;5092849;28;20378;-64
2023/08/26 11:14:50;;;;;;;3.88;1.90;;;19.20;99.90;;;;;;5058906;28;20044;-62
2023/08/26 11:17:15;;;;;;;3.75;1.90;;;19.30;99.90;;;;;;5058836;28;20401;-62
2023/08/26 11:19:41;;;;;;;4.40;1.95;;;19.40;99.90;;;;;;5092578;28;20044;-62
2023/08/26 11:22:07;;;;;;;4.00;2.00;;;19.40;99.90;;;;;;5075286;28;20043;-62
2023/08/26 11:24:32;;;;;;;4.50;1.88;;;19.20;99.90;;;;;;5075627;28;20032;-62
2023/08/26 11:27:00;;;;;;;4.45;1.75;;;19.10;99.90;;;;;;5075158;28;20501;-62
2023/08/26 11:29:26;;;;;;;3.72;1.83;;;19.10;99.90;;;;;;5075324;28;20122;-62
2023/08/26 11:31:51;;;;;;;3.67;1.65;;;19.10;99.90;;;;;;5093408;28;20129;-61
2023/08/26 11:34:22;;;;;;;7.88;2.10;;;19.10;99.90;;;;;;5074297;28;20378;-62
2023/08/26 11:36:51;;;;;;;4.45;2.38;;;19.10;99.90;;;;;;5075129;28;20047;-61
2023/08/26 11:39:18;;;;;;;4.68;2.45;;;19.00;99.90;;;;;;5091976;28;20044;-62
2023/08/26 11:41:43;;;;;;;6.13;2.13;;;19.00;99.90;;;;;;5074364;28;20455;-61
2023/08/26 11:44:16;;;;;;;5.15;1.85;;;18.90;99.90;;;;;;5058587;28;20119;-64
2023/08/26 11:46:42;;;;;;;5.35;2.00;;;18.90;99.90;;;;;;5075104;28;20068;-64
2023/08/26 11:49:11;;;;;;;5.18;2.40;;;18.90;99.90;;;;;;5092177;28;20050;-64
2023/08/26 11:51:40;;;;;;;4.43;1.90;;;18.90;99.90;;;;;;5092906;28;20036;-64
2023/08/26 11:54:06;;;;;;;4.90;1.88;;;19.00;99.90;;;;;;5057118;28;20044;-64
2023/08/26 11:56:32;;;;;;;6.00;1.70;;;19.00;99.90;;;;;;5074702;28;20083;-64
2023/08/26 11:58:58;;;;;;;4.63;1.48;;;19.00;99.90;;;;;;5074900;28;20128;-62
2023/08/26 12:01:25;;;;;;;5.22;2.00;;;19.00;99.90;;;;;;5092084;28;20047;-62
2023/08/26 12:03:50;;;;;;;3.60;1.40;;;19.00;99.90;;;;;;5074385;28;20054;-62
2023/08/26 12:06:18;;;;;;;4.68;1.75;;;19.00;99.90;;;;;;5092599;28;20123;-63
2023/08/26 12:08:53;;;;;;;3.83;1.80;;;18.90;99.90;;;;;;5073591;28;20485;-63
2023/08/26 12:11:20;;;;;;;5.95;2.25;;;18.90;99.90;;;;;;5057992;28;20537;-63
2023/08/26 12:13:46;;;;;;;6.50;2.20;;;18.70;99.90;;;;;;5074510;28;20040;-62
2023/08/26 12:16:15;;;;;;;4.55;1.65;;;18.70;99.90;;;;;;5057242;28;20043;-63
2023/08/26 12:18:41;;;;;;;2.97;1.30;;;18.80;99.90;;;;;;5092586;28;20397;-62
2023/08/26 12:21:07;;;;;;;3.55;1.40;;;18.80;99.90;;;;;;5092289;28;20068;-63
2023/08/26 12:23:33;;;;;;;4.05;1.17;;;18.80;99.90;;;;;;5091312;28;20079;-63
2023/08/26 12:26:09;;;;;;;5.40;1.65;;;18.80;99.90;;;;;;5092860;28;20039;-63
2023/08/26 12:28:40;;;;;;;4.03;1.60;;;18.80;99.90;;;;;;5074231;28;20051;-63
2023/08/26 12:31:05;;;;;;;2.65;1.10;;;18.80;99.90;;;;;;5073675;28;20090;-63
2023/08/26 12:33:31;;;;;;;4.43;1.23;;;18.80;99.90;;;;;;5092196;28;20085;-62
2023/08/26 12:35:57;;;;;;;4.35;1.70;;;18.90;99.90;;;;;;5074329;28;20114;-63
2023/08/26 12:38:23;;;;;;;3.72;1.40;;;19.00;99.90;;;;;;5073394;28;20127;-63
2023/08/26 12:40:49;;;;;;;3.17;1.05;;;19.10;99.90;;;;;;5074406;28;20465;-62
2023/08/26 12:43:15;;;;;;;3.25;1.20;;;19.20;99.90;;;;;;5073228;28;20072;-63
2023/08/26 12:45:40;;;;;;;2.72;0.80;;;19.30;99.90;;;;;;5092116;28;20119;-62